Time;durP1;ratioP1;P1;durP2;ratioP2;P2;SDS_P1;SDS_P2;PMS_P1;PMS_P2;Temp;Humidity;BMP_temperature;BMP_pressure;BME280_temperature;BME280_humidity;BME280_pressure;Samples;Min_cycle;Max_cycle;Signal;HPM_P1;HPM_P2
2021/04/20 00:01:59;;;;;;;28.48;25.67;;;24.40;51.20;;;;;;5052917;28;20743;-56
2021/04/20 00:04:26;;;;;;;31.40;28.05;;;24.40;51.10;;;;;;5070741;28;20020;-56
2021/04/20 00:06:52;;;;;;;30.63;27.38;;;24.40;51.20;;;;;;5071305;28;20351;-57
2021/04/20 00:09:18;;;;;;;29.55;26.52;;;24.30;51.20;;;;;;5070743;28;20032;-56
2021/04/20 00:11:44;;;;;;;29.77;26.67;;;24.40;51.20;;;;;;5071211;28;20413;-56
2021/04/20 00:14:12;;;;;;;30.20;27.02;;;24.30;51.20;;;;;;5070937;28;20098;-56
2021/04/20 00:16:39;;;;;;;27.52;24.70;;;24.40;51.30;;;;;;5071129;28;20061;-56
2021/04/20 00:19:07;;;;;;;25.25;22.55;;;24.40;51.30;;;;;;5070970;28;20024;-57
2021/04/20 00:21:34;;;;;;;26.08;23.50;;;24.30;51.20;;;;;;5052695;28;20049;-57
2021/04/20 00:24:00;;;;;;;25.70;23.00;;;24.30;51.20;;;;;;5071008;28;20024;-56
2021/04/20 00:26:27;;;;;;;25.45;21.67;;;24.30;51.30;;;;;;5071087;28;20032;-55
2021/04/20 00:28:53;;;;;;;23.92;21.17;;;24.30;51.30;;;;;;5054146;28;20048;-57
2021/04/20 00:31:19;;;;;;;23.35;20.02;;;24.30;51.30;;;;;;5056770;28;20024;-61
2021/04/20 00:33:45;;;;;;;25.30;20.85;;;24.30;51.30;;;;;;5056967;28;20029;-56
2021/04/20 00:36:11;;;;;;;22.02;19.45;;;24.30;51.30;;;;;;5056850;28;20082;-55
2021/04/20 00:38:38;;;;;;;21.63;19.35;;;24.30;51.30;;;;;;5074853;28;20024;-56
2021/04/20 00:41:09;;;;;;;21.92;19.65;;;24.30;51.30;;;;;;5074352;28;20369;-57
2021/04/20 00:43:47;;;;;;;20.73;18.63;;;24.30;51.40;;;;;;5074867;28;20103;-56
2021/04/20 00:46:15;;;;;;;20.70;18.00;;;24.30;51.50;;;;;;5074648;28;20056;-56
2021/04/20 00:48:42;;;;;;;17.60;15.73;;;24.30;51.40;;;;;;5074557;28;20032;-55
2021/04/20 00:51:09;;;;;;;20.83;16.55;;;24.30;51.40;;;;;;5073752;28;20066;-57
2021/04/20 00:53:36;;;;;;;20.05;17.92;;;24.30;51.40;;;;;;5074008;28;20058;-56
2021/04/20 00:56:03;;;;;;;19.08;17.17;;;24.30;51.40;;;;;;5073498;28;20055;-56
2021/04/20 00:58:29;;;;;;;17.02;15.32;;;24.30;51.40;;;;;;5073195;28;20566;-57
2021/04/20 01:00:56;;;;;;;19.55;17.58;;;24.20;51.40;;;;;;5073131;28;20355;-56
2021/04/20 01:03:23;;;;;;;21.00;17.38;;;24.30;51.50;;;;;;5039120;28;20020;-55
2021/04/20 01:05:50;;;;;;;21.92;17.70;;;24.20;51.40;;;;;;5073266;28;20032;-57
2021/04/20 01:08:20;;;;;;;20.77;18.65;;;24.20;51.50;;;;;;5073272;28;20500;-56
2021/04/20 01:10:57;;;;;;;19.27;17.25;;;24.20;51.50;;;;;;5055107;28;20036;-56
2021/04/20 01:13:27;;;;;;;19.92;16.20;;;24.20;51.50;;;;;;5055788;28;20604;-56
2021/04/20 01:15:54;;;;;;;17.48;15.77;;;24.30;51.50;;;;;;5055838;28;20047;-56
2021/04/20 01:18:27;;;;;;;18.23;16.40;;;24.20;51.50;;;;;;5073852;28;20104;-56
2021/04/20 01:21:05;;;;;;;18.33;16.42;;;24.20;51.50;;;;;;5073704;28;20155;-55
2021/04/20 01:23:48;;;;;;;17.58;14.13;;;24.20;51.50;;;;;;5055844;28;20055;-57
2021/04/20 01:26:15;;;;;;;16.38;14.68;;;24.20;51.50;;;;;;5073544;28;20538;-56
2021/04/20 01:28:42;;;;;;;16.73;15.00;;;24.20;51.50;;;;;;5073659;28;20052;-56
2021/04/20 01:31:09;;;;;;;21.48;15.77;;;24.20;51.50;;;;;;5055343;28;20119;-56
2021/04/20 01:33:35;;;;;;;16.42;13.60;;;24.20;51.60;;;;;;5073490;28;20024;-56
2021/04/20 01:36:05;;;;;;;15.88;13.70;;;24.20;51.50;;;;;;5073219;28;20055;-57
2021/04/20 01:38:32;;;;;;;15.23;13.77;;;24.20;51.50;;;;;;5073305;28;20048;-56
2021/04/20 01:40:59;;;;;;;13.85;12.45;;;24.20;51.60;;;;;;5073292;28;20106;-56
2021/04/20 01:43:25;;;;;;;16.38;14.65;;;24.20;51.60;;;;;;5055119;28;20031;-55
2021/04/20 01:45:52;;;;;;;15.43;13.68;;;24.20;52.20;;;;;;5055749;28;20035;-57
2021/04/20 01:48:18;;;;;;;15.55;13.07;;;24.20;51.60;;;;;;5073376;28;20501;-57
2021/04/20 01:50:44;;;;;;;14.70;13.20;;;24.20;51.60;;;;;;5073028;28;20026;-56
2021/04/20 01:53:10;;;;;;;14.30;12.80;;;24.10;51.60;;;;;;5072863;28;20025;-56
2021/04/20 01:55:37;;;;;;;14.63;12.52;;;24.20;51.60;;;;;;5072393;28;20029;-56
2021/04/20 01:58:04;;;;;;;14.32;12.90;;;24.20;51.70;;;;;;5073052;28;20020;-56
2021/04/20 02:00:31;;;;;;;13.32;11.95;;;24.10;51.70;;;;;;5072243;28;20074;-57
2021/04/20 02:02:59;;;;;;;15.85;13.52;;;24.10;51.70;;;;;;5054636;28;20036;-57
2021/04/20 02:05:25;;;;;;;13.07;11.77;;;24.10;51.60;;;;;;5072733;28;20032;-55
2021/04/20 02:07:52;;;;;;;15.10;13.50;;;24.20;51.70;;;;;;5038021;28;20093;-56
2021/04/20 02:10:18;;;;;;;14.15;11.80;;;24.10;51.70;;;;;;5072791;28;20563;-55
2021/04/20 02:12:44;;;;;;;12.43;11.15;;;24.10;51.60;;;;;;5072455;28;20078;-56
2021/04/20 02:15:15;;;;;;;13.15;11.75;;;24.10;51.60;;;;;;5072471;28;20029;-56
2021/04/20 02:17:42;;;;;;;14.15;11.38;;;24.10;51.70;;;;;;5072430;28;20485;-56
2021/04/20 02:20:12;;;;;;;12.48;11.27;;;24.10;51.70;;;;;;5072322;28;20037;-55
2021/04/20 02:22:40;;;;;;;12.90;10.75;;;24.10;51.60;;;;;;5072294;28;20370;-56
2021/04/20 02:25:08;;;;;;;12.50;11.18;;;24.10;51.70;;;;;;5071967;28;20029;-56
2021/04/20 02:27:35;;;;;;;13.15;11.57;;;24.10;51.60;;;;;;5072126;28;20029;-56
2021/04/20 02:30:04;;;;;;;11.18;10.07;;;24.10;51.60;;;;;;5072153;28;20107;-56
2021/04/20 02:32:30;;;;;;;11.32;10.07;;;24.10;51.70;;;;;;5071851;28;20032;-56
2021/04/20 02:35:00;;;;;;;12.32;9.63;;;24.10;51.60;;;;;;5072106;28;20028;-56
2021/04/20 02:37:26;;;;;;;12.35;10.98;;;24.10;51.70;;;;;;5073491;28;20334;-56
2021/04/20 02:39:52;;;;;;;12.23;10.90;;;24.10;51.60;;;;;;5054372;28;20178;-56
2021/04/20 02:42:18;;;;;;;12.55;9.95;;;24.10;51.70;;;;;;5072411;28;20024;-55
2021/04/20 02:44:45;;;;;;;11.55;8.98;;;24.10;51.60;;;;;;5072247;28;20032;-56
2021/04/20 02:47:11;;;;;;;11.35;9.48;;;24.00;51.60;;;;;;5072249;28;20020;-56
2021/04/20 02:49:38;;;;;;;11.63;9.52;;;24.10;51.60;;;;;;5054028;28;20059;-56
2021/04/20 02:52:05;;;;;;;10.80;9.75;;;24.00;51.80;;;;;;5052632;28;20390;-56
2021/04/20 02:54:31;;;;;;;11.55;9.38;;;24.10;51.70;;;;;;5071707;28;20423;-55
2021/04/20 02:57:00;;;;;;;11.43;9.05;;;24.00;51.60;;;;;;5053525;28;20035;-56
2021/04/20 02:59:27;;;;;;;11.45;9.20;;;24.10;51.70;;;;;;5052635;28;20033;-56
2021/04/20 03:01:53;;;;;;;10.23;9.23;;;24.10;51.80;;;;;;5071515;28;20025;-56
2021/04/20 03:04:19;;;;;;;10.68;8.77;;;24.00;51.60;;;;;;5052703;28;20048;-57
2021/04/20 03:06:46;;;;;;;12.68;9.63;;;24.00;51.60;;;;;;5071611;28;20420;-56
2021/04/20 03:09:12;;;;;;;10.25;8.95;;;24.00;51.60;;;;;;5071386;28;20032;-56
2021/04/20 03:11:53;;;;;;;9.30;8.07;;;24.00;51.60;;;;;;5054588;28;20044;-57
2021/04/20 03:14:20;;;;;;;9.73;8.52;;;24.00;51.60;;;;;;5072094;28;20394;-55
2021/04/20 03:16:46;;;;;;;12.50;8.90;;;24.00;51.60;;;;;;5071917;28;20020;-55
2021/04/20 03:19:12;;;;;;;10.48;9.13;;;24.00;51.60;;;;;;5071539;28;20025;-57
2021/04/20 03:21:40;;;;;;;8.85;7.65;;;24.00;51.50;;;;;;5071897;28;20052;-57
2021/04/20 03:24:07;;;;;;;10.30;8.40;;;24.00;51.60;;;;;;5053612;28;20017;-57
2021/04/20 03:26:36;;;;;;;9.43;8.13;;;24.00;51.60;;;;;;5071910;28;20039;-57
2021/04/20 03:29:05;;;;;;;9.05;8.10;;;24.00;51.60;;;;;;5071438;28;20036;-56
2021/04/20 03:31:31;;;;;;;9.52;8.02;;;24.00;51.70;;;;;;5071562;28;20430;-56
2021/04/20 03:34:36;;;;;;;10.25;8.20;;;24.00;51.60;;;;;;5072884;28;20579;-53
2021/04/20 03:37:30;;;;;;;11.23;8.68;;;24.00;51.70;;;;;;5071500;28;20460;-52
2021/04/20 03:40:00;;;;;;;9.75;8.13;;;24.00;51.60;;;;;;5072002;28;20139;-52
2021/04/20 03:42:36;;;;;;;9.88;7.20;;;24.00;51.60;;;;;;5072082;28;20112;-52
2021/04/20 03:45:14;;;;;;;9.40;7.53;;;23.90;51.50;;;;;;5071646;28;20673;-52
2021/04/20 03:47:55;;;;;;;9.10;7.35;;;24.00;51.60;;;;;;5071631;28;20024;-53
2021/04/20 03:50:27;;;;;;;12.77;8.48;;;24.00;51.70;;;;;;5071934;28;20347;-53
2021/04/20 03:53:01;;;;;;;8.07;7.10;;;24.00;51.60;;;;;;5072330;28;20158;-52
2021/04/20 03:55:30;;;;;;;9.25;7.53;;;23.90;51.60;;;;;;5071638;28;20025;-53
2021/04/20 03:57:56;;;;;;;8.00;7.18;;;24.00;51.60;;;;;;5072092;28;20029;-52
2021/04/20 04:00:24;;;;;;;8.40;7.10;;;24.00;51.60;;;;;;5053679;28;20549;-52
2021/04/20 04:02:53;;;;;;;7.82;6.47;;;24.00;51.60;;;;;;5073500;28;20392;-53
2021/04/20 04:05:29;;;;;;;10.00;6.60;;;23.90;51.60;;;;;;5075670;28;20028;-51
2021/04/20 04:07:58;;;;;;;8.00;6.30;;;23.90;51.60;;;;;;5075938;28;20353;-52
2021/04/20 04:10:25;;;;;;;10.60;6.95;;;23.90;51.50;;;;;;5058070;28;20040;-53
2021/04/20 04:12:56;;;;;;;9.25;7.35;;;23.90;51.50;;;;;;5075859;28;20498;-53
2021/04/20 04:15:22;;;;;;;;;;;23.90;51.60;;;;;;5076185;28;20059;-53
2021/04/20 04:17:51;;;;;;;6.82;5.30;;;23.90;51.70;;;;;;5075701;28;20269;-52
2021/04/20 04:20:20;;;;;;;7.38;5.90;;;23.90;51.20;;;;;;5075466;28;20655;-53
2021/04/20 04:23:01;;;;;;;7.40;6.68;;;24.00;51.30;;;;;;5075903;28;20059;-52
2021/04/20 04:25:42;;;;;;;7.57;5.50;;;23.90;51.40;;;;;;5075498;28;20078;-53
2021/04/20 04:28:08;;;;;;;;;;;23.90;51.20;;;;;;5076018;28;20119;-52
2021/04/20 04:30:34;;;;;;;6.50;5.60;;;23.90;51.50;;;;;;5075499;28;19908;-53
2021/04/20 04:33:03;;;;;;;6.72;5.93;;;24.00;51.20;;;;;;5075551;28;20093;-52
2021/04/20 04:35:31;;;;;;;7.28;6.10;;;23.90;51.30;;;;;;5057064;28;20420;-51
2021/04/20 04:37:59;;;;;;;7.57;6.05;;;23.90;51.40;;;;;;5075253;28;20033;-53
2021/04/20 04:40:26;;;;;;;6.13;5.47;;;23.90;51.40;;;;;;5075002;28;20060;-53
2021/04/20 04:42:52;;;;;;;7.30;5.38;;;23.90;51.50;;;;;;5075552;28;20028;-53
2021/04/20 04:45:19;;;;;;;7.30;6.07;;;23.80;51.50;;;;;;5075121;28;20430;-53
2021/04/20 04:47:45;;;;;;;7.68;5.88;;;23.90;51.60;;;;;;5056398;28;20047;-53
2021/04/20 04:50:12;;;;;;;7.45;5.55;;;23.90;51.60;;;;;;5074484;28;20031;-54
2021/04/20 04:52:40;;;;;;;8.07;5.78;;;23.80;51.60;;;;;;5075055;28;20486;-52
2021/04/20 04:55:08;;;;;;;13.00;5.78;;;23.90;51.60;;;;;;5074991;28;20072;-53
2021/04/20 04:57:36;;;;;;;6.38;4.93;;;23.90;51.50;;;;;;5057381;28;20106;-53
2021/04/20 05:00:06;;;;;;;6.80;5.45;;;23.90;51.40;;;;;;5074310;28;20047;-52
2021/04/20 05:02:38;;;;;;;6.53;5.10;;;23.80;51.50;;;;;;5071451;28;20433;-53
2021/04/20 05:05:06;;;;;;;8.15;5.53;;;23.80;51.50;;;;;;5075022;28;20104;-52
2021/04/20 05:07:33;;;;;;;6.65;5.53;;;23.90;51.50;;;;;;5074836;28;20051;-52
2021/04/20 05:10:10;;;;;;;7.28;5.50;;;23.80;51.50;;;;;;5074132;28;20060;-51
2021/04/20 05:12:37;;;;;;;5.65;4.63;;;23.80;51.50;;;;;;5056972;28;20115;-52
2021/04/20 05:15:16;;;;;;;6.22;5.35;;;23.80;51.40;;;;;;5055350;28;20116;-51
2021/04/20 05:17:43;;;;;;;7.85;5.80;;;23.80;51.40;;;;;;5074153;28;20033;-52
2021/04/20 05:20:18;;;;;;;7.82;5.63;;;23.80;51.40;;;;;;5073982;28;20056;-52
2021/04/20 05:22:49;;;;;;;8.00;5.22;;;23.80;51.40;;;;;;5036506;28;20037;-53
2021/04/20 05:25:18;;;;;;;7.20;5.63;;;23.80;51.50;;;;;;5074051;28;20478;-52
2021/04/20 05:27:47;;;;;;;6.80;5.07;;;23.80;51.40;;;;;;5073999;28;20355;-52
2021/04/20 05:30:14;;;;;;;8.15;5.30;;;23.80;51.40;;;;;;5073538;28;20064;-52
2021/04/20 05:32:41;;;;;;;7.97;5.30;;;23.80;51.40;;;;;;5074195;28;20090;-53
2021/04/20 05:35:11;;;;;;;8.38;5.53;;;23.80;51.30;;;;;;5074135;28;20028;-52
2021/04/20 05:37:40;;;;;;;7.17;4.93;;;23.80;51.40;;;;;;5072934;28;20029;-57
2021/04/20 05:40:22;;;;;;;6.00;4.78;;;23.80;51.40;;;;;;5058106;28;20429;-57
2021/04/20 05:42:50;;;;;;;6.75;4.95;;;23.70;51.30;;;;;;5053829;28;20494;-56
2021/04/20 05:45:16;;;;;;;7.18;4.72;;;23.80;51.30;;;;;;5053618;28;20053;-56
2021/04/20 05:47:44;;;;;;;6.68;5.22;;;23.80;51.30;;;;;;5053478;28;20478;-56
2021/04/20 05:50:17;;;;;;;6.50;4.82;;;23.80;51.20;;;;;;5065873;28;20067;-56
2021/04/20 05:52:43;;;;;;;5.63;5.03;;;23.80;51.20;;;;;;5073214;28;20358;-57
2021/04/20 05:55:10;;;;;;;6.55;4.82;;;23.70;51.10;;;;;;5055344;28;20025;-56
2021/04/20 05:57:36;;;;;;;6.45;5.00;;;23.80;51.10;;;;;;5073241;28;20906;-56
2021/04/20 06:00:06;;;;;;;8.23;4.65;;;23.70;51.20;;;;;;5073474;28;20782;-56
2021/04/20 06:02:39;;;;;;;5.63;4.75;;;23.70;51.10;;;;;;5073449;28;20562;-57
2021/04/20 06:05:10;;;;;;;5.45;4.35;;;23.80;51.00;;;;;;5077403;28;20036;-56
2021/04/20 06:07:40;;;;;;;5.22;4.20;;;23.70;50.90;;;;;;5071332;28;20047;-55
2021/04/20 06:10:08;;;;;;;5.28;4.50;;;23.70;50.90;;;;;;5035116;28;20025;-56
2021/04/20 06:12:36;;;;;;;7.55;5.03;;;23.70;50.90;;;;;;5060234;28;20033;-56
2021/04/20 06:15:07;;;;;;;7.93;5.22;;;23.70;50.90;;;;;;5059468;28;20032;-55
2021/04/20 06:17:38;;;;;;;5.93;4.60;;;23.70;50.90;;;;;;5052879;28;20032;-55
2021/04/20 06:20:07;;;;;;;5.55;4.43;;;23.70;50.80;;;;;;5053202;28;20029;-57
2021/04/20 06:22:34;;;;;;;6.15;4.63;;;23.70;50.80;;;;;;5034639;28;20055;-55
2021/04/20 06:25:01;;;;;;;4.65;4.22;;;23.80;50.90;;;;;;5070823;28;20338;-57
2021/04/20 06:27:28;;;;;;;7.00;4.50;;;23.70;50.80;;;;;;5072755;28;20442;-57
2021/04/20 06:29:55;;;;;;;4.82;3.75;;;23.80;50.80;;;;;;5072614;28;20484;-56
2021/04/20 06:32:21;;;;;;;8.02;4.40;;;23.80;50.60;;;;;;5072448;28;20031;-56
2021/04/20 06:34:47;;;;;;;5.07;3.83;;;23.80;50.70;;;;;;5071480;28;20031;-56
2021/04/20 06:37:14;;;;;;;4.93;4.20;;;23.80;50.60;;;;;;5054191;28;20446;-56
2021/04/20 06:39:42;;;;;;;6.10;4.15;;;23.80;50.60;;;;;;5072463;28;20119;-56
2021/04/20 06:42:18;;;;;;;5.32;4.65;;;23.80;50.60;;;;;;5072320;28;20036;-57
2021/04/20 06:45:17;;;;;;;6.05;4.45;;;23.80;50.40;;;;;;5072385;28;20090;-56
2021/04/20 06:47:49;;;;;;;8.20;4.95;;;23.80;50.50;;;;;;5071461;28;20048;-56
2021/04/20 06:50:17;;;;;;;7.80;4.80;;;23.80;50.40;;;;;;5072161;28;20032;-56
2021/04/20 06:53:03;;;;;;;5.60;4.68;;;23.80;50.40;;;;;;5072135;28;20032;-57
2021/04/20 06:55:36;;;;;;;6.38;5.05;;;23.90;50.50;;;;;;5071261;28;20045;-57
2021/04/20 06:58:05;;;;;;;7.68;4.55;;;23.80;50.10;;;;;;5072049;28;20469;-57
2021/04/20 07:00:41;;;;;;;5.55;4.03;;;23.80;49.50;;;;;;5071776;28;20527;-57
2021/04/20 07:03:25;;;;;;;7.38;4.72;;;23.80;49.20;;;;;;5071788;28;20382;-56
2021/04/20 07:06:13;;;;;;;5.22;3.95;;;23.80;49.10;;;;;;5071972;28;20099;-56
2021/04/20 07:08:59;;;;;;;6.90;4.30;;;23.80;48.80;;;;;;5071646;28;20034;-57
2021/04/20 07:11:29;;;;;;;9.05;3.92;;;23.90;48.70;;;;;;5071255;28;20060;-57
2021/04/20 07:13:59;;;;;;;11.40;4.40;;;23.90;48.20;;;;;;5062069;28;20110;-54
2021/04/20 07:16:29;;;;;;;6.90;3.75;;;23.90;48.20;;;;;;5052229;28;20133;-54
2021/04/20 07:19:19;;;;;;;9.95;4.53;;;23.90;47.90;;;;;;5066551;28;20090;-54
2021/04/20 07:22:23;;;;;;;6.45;3.58;;;23.90;47.10;;;;;;5072014;28;20052;-56
2021/04/20 07:25:05;;;;;;;9.00;3.90;;;23.80;47.60;;;;;;5072163;28;20025;-55
2021/04/20 07:28:01;;;;;;;8.50;3.33;;;23.80;47.20;;;;;;5053965;28;20481;-54
2021/04/20 07:31:04;;;;;;;15.20;10.35;;;23.80;47.10;;;;;;5072014;28;20068;-54
2021/04/20 07:33:48;;;;;;;48.88;43.75;;;23.80;47.60;;;;;;5072160;28;20024;-54
2021/04/20 07:36:42;;;;;;;35.83;31.42;;;23.80;46.60;;;;;;5071822;28;20154;-54
2021/04/20 07:39:20;;;;;;;25.92;21.48;;;23.80;46.40;;;;;;5071462;28;20119;-54
2021/04/20 07:41:48;;;;;;;21.23;16.70;;;23.80;46.50;;;;;;5071707;28;20070;-55
2021/04/20 07:44:50;;;;;;;16.65;12.93;;;23.90;46.20;;;;;;5054199;28;20469;-55
2021/04/20 07:47:18;;;;;;;10.02;7.70;;;23.90;46.10;;;;;;5071792;28;20052;-54
2021/04/20 07:50:06;;;;;;;7.25;5.63;;;23.90;46.00;;;;;;5072065;28;20020;-54
2021/04/20 07:52:43;;;;;;;8.13;4.53;;;23.90;45.80;;;;;;5071751;28;20024;-55
2021/04/20 07:55:16;;;;;;;6.38;4.15;;;23.90;45.40;;;;;;5071947;28;20021;-54
2021/04/20 07:57:53;;;;;;;6.78;3.30;;;23.90;45.30;;;;;;5071606;28;20070;-54
2021/04/20 08:00:49;;;;;;;5.35;2.80;;;23.90;45.30;;;;;;5071665;28;20055;-55
2021/04/20 08:03:29;;;;;;;4.53;2.80;;;23.90;45.50;;;;;;5072047;28;20079;-55
2021/04/20 08:06:00;;;;;;;;;;;24.00;44.90;;;;;;5072543;28;20032;-55
2021/04/20 08:08:57;;;;;;;8.60;4.60;;;24.00;46.20;;;;;;5072028;28;19912;-55
2021/04/20 08:11:40;;;;;;;6.88;4.07;;;24.10;44.80;;;;;;5071808;28;20036;-54
2021/04/20 08:14:33;;;;;;;5.28;3.65;;;24.10;44.40;;;;;;5072071;28;20040;-55
2021/04/20 08:17:13;;;;;;;5.07;4.35;;;24.10;44.20;;;;;;5071844;28;20119;-55
2021/04/20 08:19:46;;;;;;;5.95;3.60;;;24.10;44.30;;;;;;5053940;28;20037;-54
2021/04/20 08:22:15;;;;;;;6.20;3.55;;;24.10;44.10;;;;;;5070656;28;20052;-55
2021/04/20 08:24:49;;;;;;;7.53;3.00;;;24.10;44.20;;;;;;5071265;28;20020;-56
2021/04/20 08:27:31;;;;;;;4.90;2.90;;;24.20;43.90;;;;;;5068698;28;20496;-55
2021/04/20 08:30:03;;;;;;;40.17;35.90;;;24.20;43.80;;;;;;5071963;28;20035;-55
2021/04/20 08:32:30;;;;;;;42.60;38.00;;;24.20;43.70;;;;;;5071686;28;20025;-55
2021/04/20 08:35:08;;;;;;;44.05;39.47;;;24.20;43.90;;;;;;5071831;28;20150;-55
2021/04/20 08:37:42;;;;;;;23.75;19.73;;;24.20;43.60;;;;;;5071480;28;20036;-56
2021/04/20 08:40:28;;;;;;;17.60;13.07;;;24.30;43.80;;;;;;5072062;28;20385;-55
2021/04/20 08:43:21;;;;;;;12.52;8.38;;;24.30;43.80;;;;;;5071724;28;20028;-54
2021/04/20 08:46:02;;;;;;;7.30;4.93;;;24.30;43.30;;;;;;5066878;28;20462;-55
2021/04/20 08:48:49;;;;;;;10.15;6.53;;;24.30;42.90;;;;;;5071557;28;20512;-55
2021/04/20 08:51:46;;;;;;;19.92;14.43;;;24.40;42.90;;;;;;5073318;28;20060;-55
2021/04/20 08:54:50;;;;;;;20.77;16.10;;;24.40;43.00;;;;;;5064354;28;20524;-54
2021/04/20 08:57:51;;;;;;;15.25;11.10;;;24.40;43.30;;;;;;5057243;28;20390;-54
2021/04/20 09:00:52;;;;;;;12.82;8.63;;;24.50;43.20;;;;;;5057271;28;20041;-55
2021/04/20 09:03:51;;;;;;;16.45;8.30;;;24.50;43.10;;;;;;5029178;28;20036;-55
2021/04/20 09:06:41;;;;;;;10.18;7.00;;;24.50;43.30;;;;;;5070144;28;20044;-55
2021/04/20 09:09:09;;;;;;;29.42;20.67;;;24.60;43.20;;;;;;5074278;28;20036;-55
2021/04/20 09:12:02;;;;;;;35.72;31.42;;;24.70;43.40;;;;;;5074870;28;20025;-55
2021/04/20 09:14:30;;;;;;;53.75;44.95;;;24.70;43.50;;;;;;5067030;28;20044;-53
2021/04/20 09:17:04;;;;;;;42.40;37.65;;;24.70;43.40;;;;;;5074640;28;20047;-55
2021/04/20 09:19:58;;;;;;;33.72;30.00;;;24.70;43.20;;;;;;5074888;28;20319;-55
2021/04/20 09:22:48;;;;;;;21.35;19.13;;;24.70;43.30;;;;;;5074575;28;20048;-56
2021/04/20 09:25:45;;;;;;;11.48;9.32;;;24.80;43.30;;;;;;5074571;28;20025;-55
2021/04/20 09:28:28;;;;;;;13.48;6.72;;;24.80;43.80;;;;;;5074771;28;20056;-55
2021/04/20 09:31:06;;;;;;;9.82;4.35;;;24.80;47.00;;;;;;5074475;28;20064;-55
2021/04/20 09:33:43;;;;;;;8.93;3.63;;;24.80;47.10;;;;;;5074495;28;20025;-55
2021/04/20 09:36:11;;;;;;;8.00;3.88;;;24.70;47.90;;;;;;5056260;28;20428;-55
2021/04/20 09:38:42;;;;;;;6.18;3.50;;;24.70;48.00;;;;;;5074222;28;20092;-55
2021/04/20 09:41:09;;;;;;;6.05;2.90;;;24.60;48.50;;;;;;5074216;28;20055;-58
2021/04/20 09:44:04;;;;;;;6.35;3.45;;;24.60;48.20;;;;;;5056083;28;20025;-56
2021/04/20 09:46:37;;;;;;;8.93;3.35;;;24.60;48.00;;;;;;5074116;28;20470;-55
2021/04/20 09:49:20;;;;;;;3.60;2.83;;;24.60;47.20;;;;;;5074169;28;20024;-56
2021/04/20 09:51:55;;;;;;;6.25;3.25;;;24.70;45.20;;;;;;5056109;28;20040;-58
2021/04/20 09:54:27;;;;;;;3.33;2.30;;;24.70;45.20;;;;;;5055761;28;20039;-53
2021/04/20 09:56:55;;;;;;;5.47;2.97;;;24.70;45.80;;;;;;5073698;28;20029;-56
2021/04/20 09:59:28;;;;;;;3.13;2.30;;;24.70;45.20;;;;;;5073337;28;20119;-54
2021/04/20 10:02:04;;;;;;;4.03;2.65;;;24.70;44.20;;;;;;5073410;28;20104;-54
2021/04/20 10:04:42;;;;;;;7.85;2.08;;;24.50;43.50;;;;;;5073873;28;20103;-57
2021/04/20 10:07:42;;;;;;;3.10;2.13;;;24.60;45.30;;;;;;5074010;28;20044;-58
2021/04/20 10:10:14;;;;;;;2.95;1.95;;;24.70;45.60;;;;;;5073550;28;20055;-59
2021/04/20 10:13:25;;;;;;;3.38;2.00;;;24.80;45.40;;;;;;5072121;28;20058;-58
2021/04/20 10:16:05;;;;;;;7.10;2.35;;;25.00;45.40;;;;;;5050695;28;20029;-58
2021/04/20 10:18:43;;;;;;;3.42;2.10;;;25.20;45.10;;;;;;5072738;28;20041;-59
2021/04/20 10:21:27;;;;;;;2.58;2.00;;;25.30;45.00;;;;;;5072550;28;20052;-59
2021/04/20 10:24:07;;;;;;;6.93;2.58;;;25.50;44.90;;;;;;5072604;28;20056;-58
2021/04/20 10:26:54;;;;;;;6.15;2.00;;;25.60;44.70;;;;;;5072838;28;20035;-59
2021/04/20 10:29:51;;;;;;;6.28;2.30;;;25.70;44.60;;;;;;5072646;28;20032;-59
2021/04/20 10:32:38;;;;;;;6.78;2.53;;;25.80;44.50;;;;;;5072639;28;20032;-59
2021/04/20 10:35:06;;;;;;;3.25;2.00;;;25.90;44.20;;;;;;5072576;28;20024;-59
2021/04/20 10:37:37;;;;;;;8.63;2.60;;;26.00;44.50;;;;;;5054814;28;20073;-58
2021/04/20 10:40:09;;;;;;;9.70;2.60;;;26.10;44.80;;;;;;5072429;28;20036;-59
2021/04/20 10:42:37;;;;;;;4.88;2.25;;;26.20;44.90;;;;;;5072055;28;20032;-59
2021/04/20 10:45:06;;;;;;;6.88;3.70;;;26.30;45.00;;;;;;5071846;28;20027;-58
2021/04/20 10:47:34;;;;;;;4.35;2.03;;;26.40;45.00;;;;;;5071993;28;20029;-59
2021/04/20 10:50:00;;;;;;;9.00;2.60;;;26.40;45.00;;;;;;5071594;28;20068;-59
2021/04/20 10:52:32;;;;;;;8.70;3.78;;;26.50;44.90;;;;;;5071740;28;20025;-60
2021/04/20 10:55:08;;;;;;;5.22;2.97;;;26.60;44.80;;;;;;5071738;28;20409;-59
2021/04/20 10:57:38;;;;;;;6.10;2.70;;;26.60;44.60;;;;;;5037029;28;20103;-59
2021/04/20 11:00:06;;;;;;;4.90;2.20;;;26.70;44.40;;;;;;5071500;28;20032;-59
2021/04/20 11:02:37;;;;;;;4.63;2.70;;;26.80;44.40;;;;;;5071835;28;20028;-59
2021/04/20 11:05:03;;;;;;;;;;;26.80;44.30;;;;;;5072441;28;20117;-59
2021/04/20 11:07:33;;;;;;;2.92;2.17;;;26.80;44.80;;;;;;5071886;28;20396;-59
2021/04/20 11:10:08;;;;;;;4.35;2.25;;;27.00;43.90;;;;;;5053171;28;20056;-59
2021/04/20 11:12:42;;;;;;;5.95;3.38;;;27.00;43.20;;;;;;5071356;28;20025;-60
2021/04/20 11:15:09;;;;;;;3.22;2.03;;;27.10;42.50;;;;;;5071265;28;20038;-59
2021/04/20 11:17:53;;;;;;;3.88;1.90;;;27.20;42.50;;;;;;5071970;28;20057;-59
2021/04/20 11:20:41;;;;;;;2.65;1.85;;;27.20;42.10;;;;;;5072492;28;20052;-59
2021/04/20 11:23:16;;;;;;;6.20;2.05;;;27.20;41.30;;;;;;5072320;28;20039;-59
2021/04/20 11:25:53;;;;;;;4.00;2.13;;;27.30;41.30;;;;;;5071722;28;20470;-58
2021/04/20 11:28:40;;;;;;;5.22;2.22;;;27.30;40.80;;;;;;5053924;28;20033;-59
2021/04/20 11:31:10;;;;;;;6.63;2.17;;;27.40;40.60;;;;;;5071988;28;20028;-59
2021/04/20 11:33:41;;;;;;;;;;;27.50;40.70;;;;;;5053583;28;20363;-59
2021/04/20 11:36:16;;;;;;;5.10;2.28;;;27.40;41.80;;;;;;5053824;28;20280;-56
2021/04/20 11:38:46;;;;;;;4.50;2.08;;;27.60;40.40;;;;;;5071605;28;20036;-59
2021/04/20 11:41:15;;;;;;;3.47;2.00;;;27.60;40.30;;;;;;5071628;28;20466;-58
2021/04/20 11:43:44;;;;;;;2.65;1.80;;;27.70;40.20;;;;;;5071637;28;20033;-58
2021/04/20 11:46:21;;;;;;;6.10;2.10;;;27.70;40.50;;;;;;5071778;28;20025;-59
2021/04/20 11:48:50;;;;;;;4.35;1.95;;;27.70;40.30;;;;;;5071610;28;20035;-58
2021/04/20 11:51:16;;;;;;;6.20;2.22;;;27.80;41.00;;;;;;5072002;28;20142;-59
2021/04/20 11:53:47;;;;;;;7.50;2.35;;;27.90;41.70;;;;;;5071853;28;20470;-59
2021/04/20 11:56:13;;;;;;;;;;;27.90;41.00;;;;;;5072145;28;20505;-59
2021/04/20 11:58:41;;;;;;;5.00;1.95;;;28.00;42.00;;;;;;5070435;28;20339;-59
2021/04/20 12:01:16;;;;;;;4.28;2.28;;;28.10;41.00;;;;;;5071715;28;20097;-59
2021/04/20 12:03:55;;;;;;;2.38;1.67;;;28.20;40.90;;;;;;5071871;28;20051;-58
2021/04/20 12:06:23;;;;;;;4.93;2.40;;;28.30;41.10;;;;;;5071540;28;20032;-59
2021/04/20 12:08:55;;;;;;;3.28;2.22;;;28.30;41.10;;;;;;5071231;28;20037;-59
2021/04/20 12:11:27;;;;;;;8.20;2.50;;;28.40;41.00;;;;;;5071407;28;20048;-61
2021/04/20 12:13:54;;;;;;;10.35;2.83;;;28.40;41.00;;;;;;5071725;28;20462;-58
2021/04/20 12:16:21;;;;;;;4.82;2.38;;;28.50;41.10;;;;;;5071636;28;20079;-59
2021/04/20 12:18:50;;;;;;;8.90;2.25;;;28.50;41.00;;;;;;5071351;28;20025;-59
2021/04/20 12:21:25;;;;;;;5.28;1.90;;;28.50;40.90;;;;;;5071353;28;20147;-59
2021/04/20 12:24:00;;;;;;;8.80;2.45;;;28.50;40.80;;;;;;5072510;28;20036;-59
2021/04/20 12:26:28;;;;;;;8.43;2.78;;;28.60;40.90;;;;;;5063882;28;20017;-60
2021/04/20 12:28:58;;;;;;;5.95;2.13;;;28.60;41.00;;;;;;5056954;28;20112;-59
2021/04/20 12:31:37;;;;;;;3.67;2.00;;;28.50;41.00;;;;;;5074727;28;20474;-59
2021/04/20 12:34:04;;;;;;;3.72;2.05;;;28.50;41.00;;;;;;5074856;28;20138;-59
2021/04/20 12:36:39;;;;;;;4.15;2.30;;;28.50;41.10;;;;;;5074576;28;20053;-60
2021/04/20 12:39:09;;;;;;;5.05;2.00;;;28.50;41.10;;;;;;5057019;28;20059;-60
2021/04/20 12:41:36;;;;;;;4.15;1.90;;;28.50;41.20;;;;;;5074641;28;20433;-60
2021/04/20 12:44:07;;;;;;;6.93;2.65;;;28.50;41.30;;;;;;5074777;28;20040;-59
2021/04/20 12:46:35;;;;;;;6.60;2.28;;;28.50;41.20;;;;;;5074721;28;20039;-59
2021/04/20 12:49:04;;;;;;;2.70;1.80;;;28.40;41.30;;;;;;5074268;28;20028;-59
2021/04/20 12:51:32;;;;;;;6.55;2.38;;;28.40;41.30;;;;;;5056344;28;20430;-58
2021/04/20 12:54:01;;;;;;;8.60;2.33;;;28.40;42.10;;;;;;5074468;28;20025;-58
2021/04/20 12:56:35;;;;;;;6.70;2.22;;;28.50;41.40;;;;;;5073697;28;20104;-58
2021/04/20 12:59:08;;;;;;;4.75;2.08;;;28.40;41.30;;;;;;5073645;28;20078;-57
2021/04/20 13:01:36;;;;;;;9.50;2.85;;;28.40;41.30;;;;;;5073428;28;20032;-59
2021/04/20 13:04:04;;;;;;;6.70;2.70;;;28.40;41.40;;;;;;5074292;28;20056;-58
2021/04/20 13:06:30;;;;;;;5.85;2.13;;;28.40;41.40;;;;;;5074381;28;20403;-58
2021/04/20 13:08:57;;;;;;;3.75;1.95;;;28.40;41.50;;;;;;5073890;28;20052;-59
2021/04/20 13:11:29;;;;;;;5.40;2.22;;;28.40;41.60;;;;;;5055763;28;20075;-60
2021/04/20 13:13:57;;;;;;;4.25;2.10;;;28.40;41.60;;;;;;5074684;28;20371;-58